Time;durP1;ratioP1;P1;durP2;ratioP2;P2;SDS_P1;SDS_P2;PMS_P1;PMS_P2;Temp;Humidity;BMP_temperature;BMP_pressure;BME280_temperature;BME280_humidity;BME280_pressure;Samples;Min_cycle;Max_cycle;Signal;HPM_P1;HPM_P2
2022/10/04 00:02:18;;;;;;;6.53;5.93;;;;;;;2.83;100.00;97827.75;4931145;28;20201;-59
2022/10/04 00:04:53;;;;;;;6.17;5.57;;;;;;;2.77;100.00;97820.38;4881349;28;20679;-60
2022/10/04 00:07:24;;;;;;;6.87;5.87;;;;;;;2.74;100.00;97826.66;4913044;28;20771;-61
2022/10/04 00:09:56;;;;;;;6.20;5.70;;;;;;;2.69;100.00;97824.41;4909903;28;20292;-62
2022/10/04 00:12:26;;;;;;;6.00;5.60;;;;;;;2.73;100.00;97820.63;4930485;28;20509;-63
2022/10/04 00:14:57;;;;;;;5.87;5.37;;;;;;;2.75;100.00;97820.47;4929023;28;20241;-56
2022/10/04 00:17:27;;;;;;;5.87;5.47;;;;;;;2.77;100.00;97812.53;4924546;28;20451;-60
2022/10/04 00:19:58;;;;;;;5.90;5.50;;;;;;;2.70;100.00;97814.78;4889011;28;20569;-61
2022/10/04 00:22:28;;;;;;;6.07;5.53;;;;;;;2.68;100.00;97812.28;4905976;28;20339;-60
2022/10/04 00:25:20;;;;;;;5.37;5.00;;;;;;;2.58;100.00;97819.16;4909788;28;21213;-57
2022/10/04 00:28:28;;;;;;;4.53;4.23;;;;;;;2.52;100.00;97798.69;4929850;28;20205;-62
2022/10/04 00:31:23;;;;;;;5.20;4.87;;;;;;;2.65;100.00;97803.81;4930776;28;20229;-63
2022/10/04 00:33:54;;;;;;;5.87;4.60;;;;;;;2.62;100.00;97798.84;4930374;28;20207;-59
2022/10/04 00:36:39;;;;;;;5.70;5.30;;;;;;;2.57;100.00;97805.25;4886124;28;20266;-58
2022/10/04 00:39:39;;;;;;;5.93;5.50;;;;;;;2.49;100.00;97785.88;4900864;28;20749;-61
2022/10/04 00:42:20;;;;;;;5.93;5.43;;;;;;;2.58;100.00;97803.47;4929554;28;20347;-61
2022/10/04 00:44:51;;;;;;;5.47;5.07;;;;;;;2.60;100.00;97806.78;4936429;28;20648;-62
2022/10/04 00:47:30;;;;;;;5.27;4.87;;;;;;;2.58;100.00;97814.78;4930555;28;20538;-62
2022/10/04 00:50:03;;;;;;;6.83;5.27;;;;;;;2.50;100.00;97816.31;4889311;28;20230;-60
2022/10/04 00:52:35;;;;;;;4.93;4.63;;;;;;;2.48;100.00;97805.13;4908564;28;20237;-61
2022/10/04 00:55:07;;;;;;;6.13;5.37;;;;;;;2.35;100.00;97792.16;4924229;28;20612;-59
2022/10/04 00:57:40;;;;;;;4.93;4.63;;;;;;;2.40;100.00;97806.56;4919835;28;20314;-60
2022/10/04 01:00:12;;;;;;;7.40;5.20;;;;;;;2.40;100.00;97803.94;4928649;28;20229;-60
2022/10/04 01:02:49;;;;;;;5.00;4.70;;;;;;;2.40;100.00;97801.31;4927758;28;20206;-59
2022/10/04 01:05:20;;;;;;;5.77;5.30;;;;;;;2.36;100.00;97802.50;4887470;28;20202;-60
2022/10/04 01:07:53;;;;;;;5.07;4.67;;;;;;;2.39;100.00;97806.66;4907016;28;21069;-60
2022/10/04 01:10:25;;;;;;;5.13;4.80;;;;;;;2.47;100.00;97806.94;4882909;28;20640;-60
2022/10/04 01:12:59;;;;;;;5.47;5.03;;;;;;;2.52;100.00;97809.16;4929422;28;20237;-59
2022/10/04 01:16:23;;;;;;;8.50;6.43;;;;;;;2.56;100.00;97802.75;4926709;28;20362;-59
2022/10/04 01:18:52;;;;;;;6.47;5.80;;;;;;;2.53;100.00;97785.53;4924597;28;20340;-59
2022/10/04 01:21:28;;;;;;;6.47;5.87;;;;;;;2.59;100.00;97792.88;4929116;28;20275;-60
2022/10/04 01:24:23;;;;;;;6.47;5.97;;;;;;;2.67;100.00;97796.69;4885897;28;20921;-62
2022/10/04 01:26:51;;;;;;;29.67;6.00;;;;;;;2.71;100.00;97792.88;4927244;28;20281;-58
2022/10/04 01:29:25;;;;;;;6.73;6.13;;;;;;;2.76;100.00;97798.59;4928855;28;20648;-59
2022/10/04 01:31:55;;;;;;;10.70;5.40;;;;;;;2.73;100.00;97781.34;4927421;28;20264;-59
2022/10/04 01:34:25;;;;;;;8.20;5.30;;;;;;;2.82;100.00;97792.06;4928229;28;21099;-60
2022/10/04 01:36:54;;;;;;;8.23;5.63;;;;;;;2.79;100.00;97793.13;4927755;28;20620;-57
2022/10/04 01:39:26;;;;;;;4.90;4.57;;;;;;;2.72;100.00;97784.06;4896533;28;20239;-61
2022/10/04 01:41:57;;;;;;;7.07;5.80;;;;;;;2.66;100.00;97787.19;4913680;28;20213;-58
2022/10/04 01:44:30;;;;;;;5.37;4.83;;;;;;;2.60;100.00;97788.47;4927839;28;20424;-59
2022/10/04 01:47:01;;;;;;;5.07;4.67;;;;;;;2.48;100.00;97779.81;4928369;28;20209;-59
2022/10/04 01:49:32;;;;;;;5.07;4.67;;;;;;;2.37;100.00;97780.63;4926039;28;20828;-60
2022/10/04 01:52:04;;;;;;;4.47;4.17;;;;;;;2.33;100.00;97780.97;4927633;28;20797;-58
2022/10/04 01:54:36;;;;;;;4.80;4.40;;;;;;;2.24;100.00;97780.72;4886367;28;20209;-61
2022/10/04 01:57:11;;;;;;;4.60;4.33;;;;;;;2.26;100.00;97780.59;4927976;28;20305;-59
2022/10/04 01:59:43;;;;;;;6.57;5.10;;;;;;;2.15;100.00;97763.13;4925419;28;20364;-57
2022/10/04 02:02:21;;;;;;;5.17;4.70;;;;;;;2.13;100.00;97765.03;4925879;28;20226;-59
2022/10/04 02:04:52;;;;;;;5.30;4.90;;;;;;;2.17;100.00;97775.13;4929539;28;20220;-59
2022/10/04 02:07:21;;;;;;;5.37;4.97;;;;;;;2.14;100.00;97775.34;4907216;28;20814;-60
2022/10/04 02:09:58;;;;;;;4.67;4.27;;;;;;;2.10;100.00;97773.09;4895847;28;20230;-62
2022/10/04 02:12:30;;;;;;;4.90;4.53;;;;;;;2.16;100.00;97773.47;4897805;28;20229;-60
2022/10/04 02:15:00;;;;;;;4.40;4.13;;;;;;;2.17;100.00;97780.34;4905849;28;20214;-61
2022/10/04 02:17:31;;;;;;;4.70;4.30;;;;;;;2.16;100.00;97770.03;4925060;28;20221;-60
2022/10/04 02:20:00;;;;;;;6.97;5.97;;;;;;;2.27;100.00;97772.66;4924958;28;20229;-59
2022/10/04 02:22:29;;;;;;;5.17;4.77;;;;;;;2.37;100.00;97766.69;4927844;28;20202;-60
2022/10/04 02:24:59;;;;;;;7.27;5.33;;;;;;;2.33;100.00;97750.44;4896349;28;20748;-60
2022/10/04 02:27:30;;;;;;;6.10;5.50;;;;;;;2.38;100.00;97756.13;4917718;28;20513;-59
2022/10/04 02:30:02;;;;;;;5.23;4.87;;;;;;;2.37;100.00;97751.00;4925665;28;20229;-59
2022/10/04 02:35:18;;;;;;;5.40;5.07;;;;;;;2.29;100.00;97755.06;4925937;28;20866;-58
2022/10/04 02:37:48;;;;;;;6.63;6.03;;;;;;;2.29;100.00;97756.84;4928167;28;20863;-59
2022/10/04 02:40:20;;;;;;;5.93;5.43;;;;;;;2.29;100.00;97756.84;4927811;28;20451;-60
2022/10/04 02:42:50;;;;;;;6.40;5.80;;;;;;;2.26;100.00;97773.59;4888098;28;20236;-61
2022/10/04 02:45:22;;;;;;;6.00;5.47;;;;;;;2.20;100.00;97774.06;4928961;28;20210;-56
2022/10/04 02:47:53;;;;;;;5.73;5.33;;;;;;;2.14;100.00;97767.50;4930099;28;20210;-59
2022/10/04 02:50:28;;;;;;;5.53;5.13;;;;;;;2.10;100.00;97771.31;4925636;28;20288;-61
2022/10/04 02:52:59;;;;;;;4.60;4.30;;;;;;;2.03;100.00;97759.66;4928975;28;20385;-59
2022/10/04 02:55:30;;;;;;;4.70;4.23;;;;;;;2.30;100.00;97771.59;4929905;28;20202;-60
2022/10/04 02:58:00;;;;;;;6.40;4.70;;;;;;;2.34;100.00;97770.41;4866190;28;20438;-61
2022/10/04 03:00:29;;;;;;;6.00;5.40;;;;;;;2.33;100.00;97760.03;4931032;28;20318;-60
2022/10/04 03:03:16;;;;;;;5.30;4.80;;;;;;;2.31;100.00;97768.84;4917687;28;20216;-61
2022/10/04 03:05:46;;;;;;;5.50;5.10;;;;;;;2.30;100.00;97772.41;4930638;28;20421;-61
2022/10/04 03:08:14;;;;;;;8.77;5.40;;;;;;;2.47;100.00;97767.69;4928052;28;20205;-57
2022/10/04 03:10:44;;;;;;;5.87;5.47;;;;;;;2.40;100.00;97764.69;4931161;28;20279;-58
2022/10/04 03:13:14;;;;;;;37.87;6.17;;;;;;;2.40;100.00;97761.25;4864962;28;20230;-59
2022/10/04 03:15:43;;;;;;;5.23;4.83;;;;;;;2.23;100.00;97760.75;4885842;28;20217;-60
2022/10/04 03:18:12;;;;;;;5.73;5.30;;;;;;;2.22;100.00;97746.03;4930585;28;20689;-63
2022/10/04 03:20:40;;;;;;;5.33;4.87;;;;;;;2.06;100.00;97743.75;4925974;28;20610;-60
2022/10/04 03:23:10;;;;;;;9.43;4.97;;;;;;;2.06;100.00;97743.75;4931339;28;20594;-57
2022/10/04 03:25:46;;;;;;;5.10;4.57;;;;;;;2.15;100.00;97737.81;4928084;28;20775;-60
2022/10/04 03:28:14;;;;;;;7.43;5.50;;;;;;;2.24;100.00;97735.44;4930791;28;20213;-57
2022/10/04 03:30:44;;;;;;;5.23;4.73;;;;;;;2.28;100.00;97727.25;4881250;28;20244;-59
2022/10/04 03:33:21;;;;;;;4.77;4.47;;;;;;;2.27;100.00;97727.34;4926240;28;20354;-60
2022/10/04 03:35:53;;;;;;;4.27;4.03;;;;;;;2.43;100.00;97748.78;4922115;28;20422;-60
2022/10/04 03:38:23;;;;;;;5.77;4.37;;;;;;;2.43;100.00;97750.53;4930786;28;20202;-62
2022/10/04 03:40:56;;;;;;;4.57;4.10;;;;;;;2.39;100.00;97759.56;4927320;28;20860;-60
2022/10/04 03:43:26;;;;;;;4.93;4.63;;;;;;;2.37;100.00;97751.84;4930376;28;20529;-61
2022/10/04 03:45:56;;;;;;;5.10;4.70;;;;;;;2.30;100.00;97754.09;4928412;28;21870;-54
2022/10/04 03:48:31;;;;;;;4.80;4.50;;;;;;;2.22;100.00;97743.41;4885452;28;20213;-63
2022/10/04 03:51:00;;;;;;;4.93;4.53;;;;;;;2.27;100.00;97753.50;4928477;28;20414;-60
2022/10/04 03:53:34;;;;;;;4.67;4.07;;;;;;;2.28;100.00;97756.00;4930050;28;20578;-59
2022/10/04 03:56:10;;;;;;;4.47;4.17;;;;;;;2.24;100.00;97753.72;4927418;28;20518;-59
2022/10/04 03:58:38;;;;;;;4.33;4.03;;;;;;;2.19;100.00;97746.25;4926116;28;20324;-59
2022/10/04 04:01:15;;;;;;;4.67;4.20;;;;;;;2.30;100.00;97754.09;4906715;28;20210;-61
2022/10/04 04:03:54;;;;;;;5.53;4.30;;;;;;;2.35;100.00;97753.75;4886223;28;21423;-58
2022/10/04 04:06:23;;;;;;;4.70;3.93;;;;;;;2.35;100.00;97752.91;4926351;28;20216;-59
2022/10/04 04:08:53;;;;;;;4.70;4.40;;;;;;;2.26;100.00;97744.00;4929273;28;20202;-59
2022/10/04 04:11:25;;;;;;;5.37;4.87;;;;;;;2.36;100.00;97765.88;4928206;28;20407;-61
2022/10/04 04:14:03;;;;;;;5.37;4.83;;;;;;;2.40;100.00;97754.25;4928671;28;21451;-59
2022/10/04 04:16:31;;;;;;;4.93;4.60;;;;;;;2.44;100.00;97755.66;4908638;28;20252;-58
2022/10/04 04:19:02;;;;;;;6.07;5.67;;;;;;;2.48;100.00;97752.81;4898799;28;20856;-60
2022/10/04 04:21:31;;;;;;;5.53;5.13;;;;;;;2.55;100.00;97754.00;4929378;28;21054;-58
2022/10/04 04:24:02;;;;;;;8.07;4.80;;;;;;;2.46;100.00;97726.75;4930470;28;20975;-59
2022/10/04 04:26:38;;;;;;;4.73;4.43;;;;;;;2.49;100.00;97723.09;4928094;28;20209;-60
2022/10/04 04:29:09;;;;;;;4.70;4.30;;;;;;;2.57;100.00;97760.78;4930126;28;20220;-61
2022/10/04 04:31:42;;;;;;;5.10;4.80;;;;;;;2.62;100.00;97764.81;4907040;28;20214;-59
2022/10/04 04:34:17;;;;;;;5.20;4.80;;;;;;;2.54;100.00;97758.41;4897401;28;20221;-60
2022/10/04 04:36:46;;;;;;;5.60;4.87;;;;;;;2.62;100.00;97759.59;4911892;28;20272;-60
2022/10/04 04:39:36;;;;;;;6.83;5.10;;;;;;;2.66;100.00;97761.84;4927377;28;20221;-59
2022/10/04 04:42:13;;;;;;;6.03;5.53;;;;;;;2.69;100.00;97751.16;4928747;28;20221;-61
2022/10/04 04:44:47;;;;;;;7.10;4.50;;;;;;;2.72;100.00;97744.81;4930086;28;20205;-60
2022/10/04 04:47:26;;;;;;;4.00;3.80;;;;;;;2.70;100.00;97751.97;4927612;28;20206;-56
2022/10/04 04:49:56;;;;;;;6.13;3.73;;;;;;;2.67;100.00;97754.81;4897605;28;20326;-61
2022/10/04 04:52:27;;;;;;;3.97;3.73;;;;;;;2.72;100.00;97744.81;4908452;28;20217;-60
2022/10/04 04:54:56;;;;;;;3.80;3.50;;;;;;;2.75;100.00;97749.81;4929486;28;20222;-59
2022/10/04 04:57:26;;;;;;;3.97;3.67;;;;;;;2.77;100.00;97761.00;4926874;28;20213;-60
2022/10/04 04:59:57;;;;;;;4.47;3.00;;;;;;;2.86;100.00;97768.16;4927868;28;21708;-59
2022/10/04 05:02:30;;;;;;;3.63;3.43;;;;;;;2.82;100.00;97752.78;4926669;28;20401;-61
2022/10/04 05:05:21;;;;;;;3.70;3.50;;;;;;;2.85;100.00;97750.78;4881377;28;21486;-59
2022/10/04 05:07:51;;;;;;;4.10;3.80;;;;;;;2.85;100.00;97752.56;4928065;28;20815;-58
2022/10/04 05:10:21;;;;;;;4.10;3.80;;;;;;;2.87;100.00;97750.66;4926234;28;20305;-60
2022/10/04 05:12:51;;;;;;;4.57;3.90;;;;;;;2.90;100.00;97747.78;4930144;28;20609;-57
2022/10/04 05:15:19;;;;;;;4.43;4.13;;;;;;;2.94;100.00;97751.81;4923503;28;20632;-59
2022/10/04 05:17:48;;;;;;;4.37;4.07;;;;;;;2.99;100.00;97738.38;4926642;28;20205;-59
2022/10/04 05:20:16;;;;;;;4.60;4.23;;;;;;;3.01;100.00;97721.56;4881982;28;20990;-59
2022/10/04 05:22:48;;;;;;;4.20;3.90;;;;;;;3.03;100.00;97742.41;4925003;28;21471;-60
2022/10/04 05:25:21;;;;;;;4.57;4.20;;;;;;;2.98;100.00;97736.72;4873732;28;20210;-60
2022/10/04 05:27:51;;;;;;;4.50;4.10;;;;;;;2.98;100.00;97748.00;4927500;28;20217;-58
2022/10/04 05:30:33;;;;;;;4.70;4.30;;;;;;;3.14;100.00;97738.94;4927009;28;20409;-60
2022/10/04 05:33:03;;;;;;;4.83;4.43;;;;;;;3.19;100.00;97742.81;4927737;28;20293;-57
2022/10/04 05:35:45;;;;;;;4.93;4.00;;;;;;;3.17;100.00;97762.25;4924246;28;20313;-58
2022/10/04 05:38:20;;;;;;;4.77;4.37;;;;;;;3.27;100.00;97765.78;4927213;28;20890;-59
2022/10/04 05:40:52;;;;;;;6.23;4.93;;;;;;;3.31;100.00;97756.72;4883332;28;20531;-57
2022/10/04 05:43:26;;;;;;;4.33;3.90;;;;;;;3.37;100.00;97755.41;4925964;28;20692;-59
2022/10/04 05:46:24;;;;;;;4.50;3.97;;;;;;;3.41;100.00;97764.69;4928089;28;20228;-61
2022/10/04 05:48:54;;;;;;;4.43;4.13;;;;;;;3.53;100.00;97759.38;4847745;29;20392;-60
2022/10/04 05:51:24;;;;;;;5.97;5.47;;;;;;;3.66;100.00;97760.06;4847110;29;20209;-60
2022/10/04 05:53:53;;;;;;;5.17;4.77;;;;;;;3.71;100.00;97767.53;4847164;29;20743;-60
2022/10/04 05:56:47;;;;;;;4.90;4.60;;;;;;;3.73;100.00;97791.84;4799837;29;20224;-59
2022/10/04 05:59:30;;;;;;;5.10;4.70;;;;;;;3.76;100.00;97776.69;4846948;29;20232;-59
2022/10/04 06:02:09;;;;;;;6.13;5.50;;;;;;;3.88;100.00;97760.91;4848779;29;20451;-60
2022/10/04 06:04:47;;;;;;;6.97;5.63;;;;;;;3.89;100.00;97742.44;4846576;29;20209;-60
2022/10/04 06:07:20;;;;;;;6.03;5.53;;;;;;;3.79;100.00;97751.19;4847709;29;20216;-60
2022/10/04 06:09:58;;;;;;;6.93;6.20;;;;;;;3.84;100.00;97743.78;4846962;29;20791;-60
2022/10/04 06:12:41;;;;;;;6.30;5.77;;;;;;;3.96;100.00;97747.16;4800200;29;21207;-60
2022/10/04 06:15:40;;;;;;;6.87;6.27;;;;;;;4.15;100.00;97760.38;4849032;29;20255;-60
2022/10/04 06:18:29;;;;;;;9.20;7.57;;;;;;;4.24;100.00;97757.97;4853055;29;20799;-61
2022/10/04 06:21:17;;;;;;;12.17;8.83;;;;;;;4.19;100.00;97753.94;4853037;29;20392;-60
2022/10/04 06:23:51;;;;;;;7.80;6.20;;;;;;;4.34;100.00;97753.59;4855550;28;20209;-60
2022/10/04 06:26:23;;;;;;;9.93;7.23;;;;;;;4.45;100.00;97755.31;4906113;28;20214;-59
2022/10/04 06:28:55;;;;;;;7.23;6.60;;;;;;;4.56;100.00;97767.53;4884244;28;20256;-60
2022/10/04 06:31:57;;;;;;;7.77;6.70;;;;;;;4.71;100.00;97779.31;4924691;28;20622;-61
2022/10/04 06:34:50;;;;;;;7.23;6.60;;;;;;;4.79;100.00;97789.16;4931154;28;20516;-60
2022/10/04 06:37:32;;;;;;;8.47;7.67;;;;;;;4.80;100.00;97787.34;4927584;28;20906;-60
2022/10/04 06:40:17;;;;;;;8.73;7.87;;;;;;;4.81;100.00;97778.53;4928074;28;22329;-60
2022/10/04 06:43:13;;;;;;;9.03;8.23;;;;;;;5.03;100.00;97786.22;4884718;28;20788;-58
2022/10/04 06:45:53;;;;;;;9.67;8.20;;;;;;;5.12;100.00;97786.34;4927503;28;20585;-59
2022/10/04 06:48:56;;;;;;;7.77;7.07;;;;;;;5.22;100.00;97792.47;4914635;28;20197;-58
2022/10/04 06:51:37;;;;;;;8.17;7.47;;;;;;;5.36;100.00;97792.09;4929810;28;20219;-60
2022/10/04 06:54:17;;;;;;;8.03;6.97;;;;;;;5.39;100.00;97798.03;4927768;28;20372;-60
2022/10/04 06:56:57;;;;;;;7.30;6.47;;;;;;;5.43;100.00;97787.09;4922348;28;20210;-60
2022/10/04 06:59:43;;;;;;;9.10;7.77;;;;;;;5.61;100.00;97813.53;4925097;28;20267;-60
2022/10/04 07:02:14;;;;;;;11.10;9.00;;;;;;;5.67;100.00;97812.19;4913416;28;20593;-62
2022/10/04 07:04:49;;;;;;;11.63;8.53;;;;;;;5.66;100.00;97805.25;4930969;28;20697;-60
2022/10/04 07:07:36;;;;;;;8.80;7.90;;;;;;;5.55;100.00;97792.25;4931001;28;20206;-60
2022/10/04 07:10:23;;;;;;;7.97;6.77;;;;;;;5.60;100.00;97787.41;4928026;28;20924;-60
2022/10/04 07:12:57;;;;;;;8.57;7.63;;;;;;;5.71;100.00;97776.75;4907015;28;20462;-61
2022/10/04 07:15:31;;;;;;;8.70;7.80;;;;;;;5.72;100.00;97761.81;4926400;28;20226;-63
2022/10/04 07:18:05;;;;;;;9.83;9.03;;;;;;;5.80;100.00;97754.06;4913760;28;20882;-60
2022/10/04 07:20:36;;;;;;;8.93;7.40;;;;;;;5.93;100.00;97773.00;4931449;28;20520;-58
2022/10/04 07:23:08;;;;;;;13.50;12.10;;;;;;;6.04;100.00;97779.94;4927555;28;20768;-59
2022/10/04 07:25:42;;;;;;;10.07;7.87;;;;;;;6.15;100.00;97784.22;4931173;28;20206;-61
2022/10/04 07:31:04;;;;;;;7.53;6.67;;;;;;;6.70;100.00;97782.69;4835384;28;21418;-59
2022/10/04 07:33:35;;;;;;;8.13;7.33;;;;;;;6.65;100.00;97772.59;4925802;28;20817;-59
2022/10/04 07:36:08;;;;;;;9.97;8.63;;;;;;;6.78;100.00;97781.97;4930749;28;20385;-60
2022/10/04 07:38:39;;;;;;;8.93;7.73;;;;;;;6.96;100.00;97776.75;4909239;28;20755;-60
2022/10/04 07:41:09;;;;;;;9.17;8.27;;;;;;;7.05;100.00;97777.69;4929236;28;20452;-60
2022/10/04 07:43:48;;;;;;;9.23;8.43;;;;;;;7.32;100.00;97773.34;4910188;28;20780;-59
2022/10/04 07:46:22;;;;;;;10.03;9.03;;;;;;;7.35;100.00;97776.53;4882816;28;20228;-61
2022/10/04 07:48:50;;;;;;;9.53;8.63;;;;;;;7.52;100.00;97780.19;4927215;28;20222;-61
2022/10/04 07:51:30;;;;;;;9.93;8.87;;;;;;;7.56;100.00;97783.31;4928393;28;20290;-58
2022/10/04 07:54:01;;;;;;;9.63;8.43;;;;;;;7.67;100.00;97782.28;4929507;28;20671;-59
2022/10/04 07:56:35;;;;;;;9.77;8.77;;;;;;;7.64;100.00;97786.06;4928113;28;20605;-57
2022/10/04 07:59:14;;;;;;;9.93;9.00;;;;;;;7.68;100.00;97784.78;4910647;28;20311;-61
2022/10/04 08:01:46;;;;;;;8.80;8.03;;;;;;;7.88;100.00;97783.78;4883916;28;20538;-59
2022/10/04 08:04:29;;;;;;;8.90;8.00;;;;;;;8.13;100.00;97778.69;4927272;28;20213;-59
2022/10/04 08:07:01;;;;;;;9.10;8.40;;;;;;;8.19;100.00;97773.63;4930371;28;20554;-60
2022/10/04 08:09:41;;;;;;;8.10;7.40;;;;;;;8.46;100.00;97795.59;4927135;28;20436;-60
2022/10/04 08:12:18;;;;;;;7.33;6.73;;;;;;;8.64;100.00;97798.22;4928511;28;20448;-60
2022/10/04 08:14:54;;;;;;;7.80;7.10;;;;;;;8.58;100.00;97785.66;4907532;28;20228;-61
2022/10/04 08:17:31;;;;;;;7.03;6.47;;;;;;;8.75;100.00;97786.56;4882532;28;20403;-60
2022/10/04 08:20:08;;;;;;;9.93;7.70;;;;;;;8.84;100.00;97776.84;4929573;28;20226;-60
2022/10/04 08:22:50;;;;;;;7.83;7.13;;;;;;;8.95;100.00;97783.66;4929318;28;20401;-56
2022/10/04 08:25:21;;;;;;;7.17;6.57;;;;;;;8.82;100.00;97786.75;4928089;28;20636;-61
2022/10/04 08:30:52;;;;;;;7.77;7.07;;;;;;;9.08;100.00;97784.03;4908366;28;20233;-59
2022/10/04 08:33:28;;;;;;;8.60;7.80;;;;;;;9.29;100.00;97774.88;4877694;28;20428;-60
2022/10/04 08:36:03;;;;;;;7.93;7.23;;;;;;;9.40;100.00;97790.41;4929754;28;20233;-59
2022/10/04 08:38:43;;;;;;;8.73;7.93;;;;;;;9.55;100.00;97790.63;4925448;28;20206;-60
2022/10/04 08:41:31;;;;;;;7.77;7.17;;;;;;;9.59;100.00;97782.34;4926900;28;20210;-61
2022/10/04 08:44:31;;;;;;;9.10;6.90;;;;;;;9.79;100.00;97775.78;4929298;28;20210;-60
2022/10/04 08:47:33;;;;;;;7.77;7.13;;;;;;;10.08;100.00;97771.81;4909252;28;20767;-60
2022/10/04 08:50:19;;;;;;;8.93;7.43;;;;;;;10.31;100.00;97780.91;4927822;28;20515;-58
2022/10/04 08:53:12;;;;;;;7.83;7.23;;;;;;;10.28;100.00;97776.75;4926845;28;22163;-59
2022/10/04 08:55:50;;;;;;;8.07;6.63;;;;;;;10.41;100.00;97774.44;4928057;28;20240;-58
2022/10/04 08:58:33;;;;;;;7.77;7.03;;;;;;;10.44;100.00;97778.59;4925932;28;20224;-59
2022/10/04 09:01:13;;;;;;;8.13;7.43;;;;;;;10.54;100.00;97787.16;4926375;28;20214;-60
2022/10/04 09:04:10;;;;;;;7.07;6.37;;;;;;;10.61;100.00;97786.53;4883636;28;20826;-59
2022/10/04 09:06:55;;;;;;;7.67;7.03;;;;;;;10.79;100.00;97780.97;4926975;28;20767;-59
2022/10/04 09:09:57;;;;;;;7.50;6.90;;;;;;;10.57;100.00;97784.19;4924997;28;20793;-58
2022/10/04 09:12:49;;;;;;;6.80;6.30;;;;;;;10.49;100.00;97784.19;4924695;28;20473;-60
2022/10/04 09:15:26;;;;;;;7.37;6.77;;;;;;;10.63;100.00;97795.13;4926014;28;20240;-59
2022/10/04 09:17:56;;;;;;;7.53;6.83;;;;;;;10.83;100.00;97798.22;4884096;28;20212;-59
2022/10/04 09:20:35;;;;;;;8.00;7.17;;;;;;;10.86;100.00;97792.56;4925454;28;20233;-59
2022/10/04 09:23:16;;;;;;;8.30;7.60;;;;;;;10.83;100.00;97792.91;4928416;28;20527;-60
2022/10/04 09:25:51;;;;;;;7.87;7.17;;;;;;;10.71;100.00;97793.25;4927843;28;20207;-61
2022/10/04 09:28:57;;;;;;;7.63;6.97;;;;;;;11.29;100.00;97787.75;4924979;28;20219;-60
2022/10/04 09:32:08;;;;;;;8.37;7.57;;;;;;;11.68;100.00;97785.22;4915282;28;21856;-59
2022/10/04 09:34:50;;;;;;;7.90;7.20;;;;;;;12.02;96.45;97779.50;4883945;28;20464;-60
2022/10/04 09:37:31;;;;;;;7.43;6.70;;;;;;;12.07;94.16;97780.78;4926191;28;20784;-60
2022/10/04 09:40:44;;;;;;;7.63;6.93;;;;;;;12.37;93.78;97781.69;4904459;28;20956;-61
2022/10/04 09:43:54;;;;;;;7.07;6.37;;;;;;;12.39;91.19;97779.69;4918474;28;20981;-62
2022/10/04 09:46:39;;;;;;;5.63;5.17;;;;;;;12.41;92.10;97783.00;4833790;29;20776;-60
2022/10/04 09:49:17;;;;;;;7.07;5.13;;;;;;;12.51;89.68;97779.22;4837918;29;20302;-61
2022/10/04 09:52:07;;;;;;;6.70;5.03;;;;;;;12.49;92.55;97782.06;4836976;29;20638;-61
2022/10/04 09:54:55;;;;;;;6.33;5.13;;;;;;;12.61;90.41;97787.75;4794724;29;20225;-60
2022/10/04 09:57:30;;;;;;;5.83;5.23;;;;;;;12.67;89.73;97791.53;4838171;29;20328;-61
2022/10/04 10:00:08;;;;;;;5.27;4.77;;;;;;;12.82;89.43;97786.22;4836043;29;21055;-57
2022/10/04 10:03:11;;;;;;;7.13;4.73;;;;;;;12.72;89.65;97778.50;4822165;29;20715;-60
2022/10/04 10:06:19;;;;;;;6.37;4.90;;;;;;;12.92;91.22;97781.44;4817818;29;20239;-59
2022/10/04 10:09:00;;;;;;;6.73;5.10;;;;;;;13.12;88.62;97767.59;4789356;29;20316;-59
2022/10/04 10:14:54;;;;;;;5.23;4.40;;;;;;;13.27;87.11;97778.22;4837908;29;20390;-59
2022/10/04 10:17:36;;;;;;;5.57;5.00;;;;;;;13.41;86.70;97777.34;4837320;29;20275;-59
2022/10/04 10:20:33;;;;;;;5.67;4.60;;;;;;;13.44;85.76;97784.13;4818009;29;20256;-58
2022/10/04 10:23:29;;;;;;;5.37;4.87;;;;;;;13.64;86.86;97775.56;4862383;28;20214;-60
2022/10/04 10:26:22;;;;;;;8.30;5.10;;;;;;;13.84;83.44;97781.09;4927591;28;20549;-61
2022/10/04 10:29:27;;;;;;;4.50;3.60;;;;;;;13.96;80.38;97765.41;4928767;28;20984;-57
2022/10/04 10:32:20;;;;;;;6.03;4.10;;;;;;;14.16;79.44;97765.59;4916627;28;20604;-60
2022/10/04 10:35:11;;;;;;;16.03;10.87;;;;;;;14.51;77.78;97767.47;4906660;28;20387;-61
2022/10/04 10:37:50;;;;;;;4.37;3.00;;;;;;;14.43;75.33;97771.94;4927998;28;20237;-60
2022/10/04 10:40:39;;;;;;;5.23;2.97;;;;;;;14.27;76.77;97770.38;4881358;28;20815;-60
2022/10/04 10:43:22;;;;;;;3.13;2.80;;;;;;;14.05;76.91;97772.25;4931818;28;20217;-61
2022/10/04 10:46:04;;;;;;;3.30;2.43;;;;;;;14.17;76.68;97764.56;4928334;28;21238;-60
2022/10/04 10:48:48;;;;;;;5.30;3.00;;;;;;;14.08;75.64;97771.88;4928531;28;20359;-60
2022/10/04 10:51:19;;;;;;;5.00;2.67;;;;;;;14.15;76.09;97771.94;4912218;28;20217;-60
2022/10/04 10:54:28;;;;;;;4.03;2.47;;;;;;;14.46;74.43;97782.22;4880951;28;20902;-61
2022/10/04 10:57:07;;;;;;;3.27;2.50;;;;;;;14.76;73.66;97778.53;4922650;28;20940;-60
2022/10/04 11:00:05;;;;;;;4.60;2.27;;;;;;;14.92;71.09;97785.38;4929497;28;20264;-60
2022/10/04 11:03:18;;;;;;;2.27;1.80;;;;;;;15.21;70.69;97786.16;4928906;28;20206;-61
2022/10/04 11:06:14;;;;;;;3.40;2.33;;;;;;;15.28;71.04;97778.19;4905455;28;20425;-61
2022/10/04 11:09:33;;;;;;;7.20;3.60;;;;;;;15.33;70.70;97781.88;4927313;28;20282;-61
2022/10/04 11:12:38;;;;;;;4.37;3.13;;;;;;;15.30;70.58;97773.47;4902617;28;20238;-61
2022/10/04 11:15:39;;;;;;;4.03;2.30;;;;;;;14.97;70.17;97772.31;4930013;28;20218;-59
2022/10/04 11:18:34;;;;;;;3.87;3.13;;;;;;;14.69;71.17;97767.81;4930813;28;20233;-59
2022/10/04 11:21:24;;;;;;;2.63;2.00;;;;;;;14.64;72.11;97754.25;4908769;28;20697;-59
2022/10/04 11:24:28;;;;;;;3.40;2.50;;;;;;;14.59;72.46;97752.16;4929060;28;20656;-58
2022/10/04 11:27:27;;;;;;;2.60;2.00;;;;;;;14.56;72.75;97747.22;4880869;28;21740;-58
2022/10/04 11:30:15;;;;;;;3.50;2.37;;;;;;;14.50;72.10;97756.00;4917176;28;20233;-59
2022/10/04 11:33:17;;;;;;;6.40;2.10;;;;;;;14.62;74.26;97750.94;4927227;28;20673;-61
2022/10/04 11:36:18;;;;;;;5.20;2.43;;;;;;;14.52;73.20;97745.13;4926607;28;20648;-59
2022/10/04 11:39:02;;;;;;;5.17;2.73;;;;;;;14.36;74.58;97749.75;4905504;28;20781;-59
2022/10/04 11:41:43;;;;;;;5.33;3.33;;;;;;;14.31;73.47;97722.84;4906912;28;22247;-61
2022/10/04 11:44:42;;;;;;;4.00;2.53;;;;;;;14.45;74.98;97729.91;4930234;28;21126;-60
2022/10/04 11:47:35;;;;;;;2.30;2.10;;;;;;;14.37;74.20;97735.41;4892986;28;20497;-61
2022/10/04 11:50:20;;;;;;;5.07;2.90;;;;;;;14.55;74.36;97744.72;4926769;28;20586;-59
2022/10/04 11:53:25;;;;;;;3.33;2.47;;;;;;;14.51;74.66;97741.66;4928458;28;20590;-60
2022/10/04 11:56:28;;;;;;;3.37;2.03;;;;;;;14.31;71.88;97742.31;4926886;28;20315;-60
2022/10/04 11:59:07;;;;;;;2.60;2.40;;;;;;;14.15;71.75;97731.97;4928174;28;20864;-60
2022/10/04 12:02:08;;;;;;;4.37;2.07;;;;;;;14.29;72.95;97730.22;4884926;28;20675;-62
2022/10/04 12:04:59;;;;;;;4.93;2.70;;;;;;;14.28;72.48;97736.56;4928615;28;21004;-58
2022/10/04 12:07:50;;;;;;;6.17;2.83;;;;;;;14.33;72.01;97718.16;4930596;28;20201;-59
2022/10/04 12:10:23;;;;;;;4.43;2.60;;;;;;;14.39;72.64;97725.38;4930372;28;20228;-59
2022/10/04 12:13:06;;;;;;;5.03;2.37;;;;;;;14.43;72.94;97709.81;4926736;28;20198;-60
2022/10/04 12:16:16;;;;;;;3.67;2.20;;;;;;;14.53;72.84;97714.78;4927493;28;20240;-59
2022/10/04 12:19:14;;;;;;;2.13;1.93;;;;;;;14.62;71.14;97713.63;4803490;29;20224;-60
2022/10/04 12:21:57;;;;;;;2.67;1.70;;;;;;;14.53;69.06;97712.94;4852681;29;20208;-60
2022/10/04 12:25:08;;;;;;;4.33;3.77;;;;;;;14.67;70.40;97711.19;4852967;29;20459;-58
2022/10/04 12:28:00;;;;;;;1.97;1.87;;;;;;;14.76;69.44;97704.69;4854635;29;20519;-59
2022/10/04 12:30:40;;;;;;;3.17;2.00;;;;;;;15.02;69.70;97707.66;4851092;29;20270;-58
2022/10/04 12:33:16;;;;;;;2.07;1.23;;;;;;;14.88;64.55;97704.09;4804153;29;20417;-58
2022/10/04 12:35:56;;;;;;;2.27;1.70;;;;;;;14.92;66.00;97707.22;4851325;29;20482;-59
2022/10/04 12:38:39;;;;;;;2.10;1.77;;;;;;;14.92;66.74;97701.88;4853418;29;20233;-61
2022/10/04 12:41:16;;;;;;;1.90;1.33;;;;;;;15.11;64.38;97703.78;4850802;29;20212;-60
2022/10/04 12:43:51;;;;;;;3.37;2.27;;;;;;;16.12;63.98;97708.47;4850598;29;20905;-60